createdAt,value
2023-10-06T00:01:44.227Z,22.10
2023-10-06T00:04:14.404Z,18.48
2023-10-06T00:06:43.452Z,20.10
2023-10-06T00:09:11.096Z,23.48
2023-10-06T00:11:41.976Z,17.25
2023-10-06T00:14:09.567Z,16.17
2023-10-06T00:16:40.951Z,15.77
2023-10-06T00:19:26.569Z,19.73
2023-10-06T00:22:13.959Z,14.43
2023-10-06T00:24:44.309Z,16.05
2023-10-06T00:27:14.420Z,16.55
2023-10-06T00:29:48.980Z,14.07
2023-10-06T00:35:13.276Z,14.32
2023-10-06T00:37:41.116Z,14.38
2023-10-06T00:40:12.580Z,13.75
2023-10-06T00:42:40.253Z,11.65
2023-10-06T00:45:10.193Z,16.55
2023-10-06T00:47:40.293Z,11.73
2023-10-06T00:50:13.802Z,11.27
2023-10-06T00:52:41.644Z,12.55
2023-10-06T00:55:13.223Z,13.75
2023-10-06T00:57:41.793Z,15.27
2023-10-06T01:00:22.065Z,14.45
2023-10-06T01:02:51.148Z,13.02
2023-10-06T01:05:20.358Z,13.45
2023-10-06T01:07:48.032Z,15.10
2023-10-06T01:10:19.849Z,14.98
2023-10-06T01:12:53.338Z,12.43
2023-10-06T01:15:21.828Z,18.42
2023-10-06T01:17:49.426Z,12.77
2023-10-06T01:20:34.133Z,12.75
2023-10-06T01:23:02.526Z,11.75
2023-10-06T01:25:36.389Z,12.23
2023-10-06T01:28:04.941Z,14.05
2023-10-06T01:30:32.255Z,10.00
2023-10-06T01:32:59.863Z,9.65
2023-10-06T01:35:28.234Z,14.57
2023-10-06T01:38:02.514Z,12.38
2023-10-06T01:40:30.402Z,12.00
2023-10-06T01:42:57.871Z,14.57
2023-10-06T01:45:25.733Z,9.23
2023-10-06T01:48:12.127Z,10.23
2023-10-06T01:50:41.135Z,14.23
2023-10-06T01:53:17.771Z,13.35
2023-10-06T01:55:45.076Z,15.00
2023-10-06T01:58:12.772Z,16.23
2023-10-06T02:00:40.550Z,15.10
2023-10-06T02:03:12.022Z,10.82
2023-10-06T02:05:42.097Z,17.08
2023-10-06T02:08:15.878Z,10.30
2023-10-06T02:10:44.587Z,11.00
2023-10-06T02:13:12.488Z,11.52
2023-10-06T02:15:39.736Z,13.30
2023-10-06T02:18:13.821Z,11.95
2023-10-06T02:20:42.729Z,13.32
2023-10-06T02:23:10.381Z,12.63
2023-10-06T02:25:37.650Z,13.88
2023-10-06T02:28:06.526Z,12.73
2023-10-06T02:30:38.932Z,13.65
2023-10-06T02:33:09.342Z,15.27
2023-10-06T02:35:37.561Z,14.90
2023-10-06T02:38:08.349Z,23.70
2023-10-06T02:40:45.148Z,21.05
2023-10-06T02:43:14.700Z,18.13
2023-10-06T02:45:42.183Z,18.35
2023-10-06T02:48:23.846Z,17.88
2023-10-06T02:50:56.477Z,14.93
2023-10-06T02:53:25.117Z,15.10
2023-10-06T02:55:57.333Z,19.05
2023-10-06T02:58:32.114Z,15.15
2023-10-06T03:00:59.759Z,21.23
2023-10-06T03:03:30.741Z,16.08
2023-10-06T03:05:59.489Z,17.85
2023-10-06T03:08:29.557Z,16.77
2023-10-06T03:10:57.319Z,17.98
2023-10-06T03:13:34.016Z,17.23
2023-10-06T03:16:02.891Z,17.92
2023-10-06T03:18:31.889Z,19.50
2023-10-06T03:21:02.921Z,21.67
2023-10-06T03:23:39.474Z,20.10
2023-10-06T03:26:33.393Z,16.80
2023-10-06T03:29:12.826Z,16.70
2023-10-06T03:31:46.556Z,18.52
2023-10-06T03:34:17.774Z,18.48
2023-10-06T03:36:53.448Z,18.88
2023-10-06T03:39:31.223Z,23.38
2023-10-06T03:42:05.234Z,20.50
2023-10-06T03:44:32.500Z,15.88
2023-10-06T03:47:03.138Z,15.23
2023-10-06T03:49:34.997Z,19.05
2023-10-06T03:52:04.458Z,15.40
2023-10-06T03:54:31.712Z,14.23
2023-10-06T03:56:59.430Z,13.35
2023-10-06T03:59:26.928Z,15.40
2023-10-06T04:01:54.139Z,13.27
2023-10-06T04:04:24.482Z,12.75
2023-10-06T04:06:51.776Z,10.55
2023-10-06T04:09:29.067Z,13.38
2023-10-06T04:11:58.484Z,12.13
2023-10-06T04:14:29.155Z,18.40
2023-10-06T04:16:57.314Z,13.60
2023-10-06T04:19:24.702Z,15.57
2023-10-06T04:21:52.040Z,12.50
2023-10-06T04:24:20.168Z,18.60
2023-10-06T04:26:47.258Z,16.83
2023-10-06T04:29:14.943Z,16.35
2023-10-06T04:31:42.329Z,17.05
2023-10-06T04:34:10.855Z,16.85
2023-10-06T04:36:39.260Z,15.25
2023-10-06T04:39:12.021Z,14.27
2023-10-06T04:41:42.377Z,21.98
2023-10-06T04:44:11.415Z,16.40
2023-10-06T04:46:38.787Z,18.40
2023-10-06T04:49:07.300Z,14.52
2023-10-06T04:51:35.676Z,15.55
2023-10-06T04:54:04.188Z,12.55
2023-10-06T04:56:33.939Z,13.02
2023-10-06T04:59:01.697Z,15.52
2023-10-06T05:01:32.583Z,13.80
2023-10-06T05:04:00.449Z,16.88
2023-10-06T05:06:27.747Z,13.13
2023-10-06T05:08:55.854Z,25.65
2023-10-06T05:11:25.039Z,15.35
2023-10-06T05:13:55.509Z,15.65
2023-10-06T05:16:24.908Z,14.63
2023-10-06T05:18:52.901Z,15.02
2023-10-06T05:21:21.775Z,11.73
2023-10-06T05:23:49.328Z,11.10
2023-10-06T05:26:17.558Z,15.18
2023-10-06T05:28:45.627Z,12.60
2023-10-06T05:31:13.644Z,14.35
2023-10-06T05:33:42.224Z,16.38
2023-10-06T05:36:11.498Z,18.45
2023-10-06T05:38:39.128Z,14.85
2023-10-06T05:41:13.563Z,13.10
2023-10-06T05:43:41.943Z,16.08
2023-10-06T05:46:10.920Z,18.85
2023-10-06T05:48:39.916Z,12.98
2023-10-06T05:51:11.089Z,11.95
2023-10-06T05:53:44.605Z,14.95
2023-10-06T05:56:13.243Z,10.50
2023-10-06T05:58:42.440Z,9.90
2023-10-06T06:01:20.399Z,13.05
2023-10-06T06:03:48.764Z,7.68
2023-10-06T06:06:17.414Z,10.43
2023-10-06T06:08:48.989Z,14.68
2023-10-06T06:11:17.714Z,12.13
2023-10-06T06:13:48.172Z,13.65
2023-10-06T06:16:18.395Z,11.93
2023-10-06T06:18:46.928Z,12.52
2023-10-06T06:21:17.806Z,9.93
2023-10-06T06:23:47.707Z,8.20
2023-10-06T06:26:18.566Z,13.90
2023-10-06T06:28:46.278Z,12.93
2023-10-06T06:31:20.425Z,10.27
2023-10-06T06:33:50.281Z,9.13
2023-10-06T06:36:20.154Z,9.13
2023-10-06T06:38:47.601Z,15.43
2023-10-06T06:41:14.880Z,11.18
2023-10-06T06:43:46.935Z,7.85
2023-10-06T06:46:14.661Z,9.07
2023-10-06T06:48:45.126Z,10.05
2023-10-06T06:51:13.114Z,10.30
2023-10-06T06:53:43.322Z,14.68
2023-10-06T06:56:12.165Z,8.50
2023-10-06T06:58:40.210Z,13.32
2023-10-06T07:01:16.375Z,10.32
2023-10-06T07:03:43.950Z,10.88
2023-10-06T07:06:17.555Z,7.90
2023-10-06T07:08:50.751Z,11.37
2023-10-06T07:11:18.356Z,9.75
2023-10-06T07:13:47.160Z,12.90
2023-10-06T07:16:15.839Z,10.82
2023-10-06T07:18:43.512Z,10.43
2023-10-06T07:21:11.449Z,8.38
2023-10-06T07:23:41.664Z,10.10
2023-10-06T07:26:12.493Z,12.02
2023-10-06T07:28:42.773Z,8.80
2023-10-06T07:31:14.676Z,8.95
2023-10-06T07:33:45.916Z,15.50
2023-10-06T07:36:14.876Z,10.57
2023-10-06T07:38:42.640Z,12.85
2023-10-06T07:41:11.469Z,13.00
2023-10-06T07:43:39.125Z,9.77
2023-10-06T07:46:09.197Z,6.97
2023-10-06T07:48:37.916Z,11.18
2023-10-06T07:51:07.497Z,15.90
2023-10-06T07:53:40.047Z,11.32
2023-10-06T07:56:10.109Z,15.27
2023-10-06T07:58:42.473Z,7.43
2023-10-06T08:01:10.326Z,8.35
2023-10-06T08:03:41.023Z,10.75
2023-10-06T08:06:17.964Z,6.50
2023-10-06T08:08:45.630Z,10.80
2023-10-06T08:11:14.573Z,7.35
2023-10-06T08:13:43.418Z,9.60
2023-10-06T08:16:13.452Z,7.38
2023-10-06T08:18:41.267Z,9.85
2023-10-06T08:21:08.474Z,9.00
2023-10-06T08:23:38.568Z,10.73
2023-10-06T08:26:10.394Z,7.93
2023-10-06T08:28:37.824Z,7.15
2023-10-06T08:31:05.532Z,9.48
2023-10-06T08:33:33.581Z,8.23
2023-10-06T08:36:03.140Z,7.75
2023-10-06T08:38:31.943Z,9.32
2023-10-06T08:41:02.883Z,14.10
2023-10-06T08:43:31.249Z,10.65
2023-10-06T08:46:01.882Z,9.60
2023-10-06T08:48:33.867Z,7.03
2023-10-06T08:51:04.817Z,11.57
2023-10-06T08:53:32.485Z,12.75
2023-10-06T08:56:00.431Z,8.45
2023-10-06T08:58:28.251Z,10.63
2023-10-06T09:00:57.216Z,8.13
2023-10-06T09:03:27.638Z,8.07
2023-10-06T09:05:55.524Z,7.57
2023-10-06T09:08:23.187Z,8.80
2023-10-06T09:10:52.015Z,8.35
2023-10-06T09:13:20.318Z,10.02
2023-10-06T09:16:04.223Z,8.93
2023-10-06T09:18:35.856Z,10.67
2023-10-06T09:21:17.539Z,10.40
2023-10-06T09:23:45.766Z,8.57
2023-10-06T09:26:17.141Z,9.40
2023-10-06T09:28:56.948Z,8.70
2023-10-06T09:31:45.774Z,10.88
2023-10-06T09:34:14.426Z,7.45
2023-10-06T09:36:46.164Z,10.43
2023-10-06T09:39:20.971Z,6.03
2023-10-06T09:41:49.318Z,6.72
2023-10-06T09:44:19.356Z,10.23
2023-10-06T09:46:47.273Z,8.20
2023-10-06T09:49:17.761Z,8.88
2023-10-06T09:51:45.104Z,8.13
2023-10-06T09:54:13.911Z,15.32
2023-10-06T09:56:42.182Z,10.18
2023-10-06T09:59:13.788Z,11.90
2023-10-06T10:01:47.136Z,9.60
2023-10-06T10:04:15.711Z,5.72
2023-10-06T10:06:46.594Z,8.80
2023-10-06T10:09:18.515Z,6.68
2023-10-06T10:11:51.533Z,7.88
2023-10-06T10:14:35.504Z,10.05
2023-10-06T10:17:19.847Z,6.20
2023-10-06T10:19:47.921Z,6.10
2023-10-06T10:22:17.520Z,5.78
2023-10-06T10:27:24.787Z,10.63
2023-10-06T10:29:52.918Z,8.80
2023-10-06T10:32:26.134Z,6.85
2023-10-06T10:35:15.911Z,5.60
2023-10-06T10:37:53.560Z,4.05
2023-10-06T10:40:23.161Z,3.65
2023-10-06T10:43:01.574Z,7.55
2023-10-06T10:45:38.218Z,5.38
2023-10-06T10:48:07.441Z,8.77
2023-10-06T10:51:12.107Z,7.95
2023-10-06T10:53:44.961Z,6.57
2023-10-06T10:56:27.637Z,9.35
2023-10-06T10:58:56.237Z,6.82
2023-10-06T11:01:46.611Z,6.93
2023-10-06T11:04:30.651Z,8.75
2023-10-06T11:07:02.693Z,8.60
2023-10-06T11:09:30.923Z,6.80
2023-10-06T11:14:39.805Z,6.65
2023-10-06T11:17:08.264Z,5.45
2023-10-06T11:19:38.131Z,6.60
2023-10-06T11:22:23.653Z,4.15
2023-10-06T11:24:52.042Z,6.00
2023-10-06T11:27:23.809Z,6.45
2023-10-06T11:29:54.559Z,10.57
2023-10-06T11:32:23.191Z,4.85
2023-10-06T11:34:53.647Z,9.80
2023-10-06T11:37:25.424Z,11.68
2023-10-06T11:39:54.153Z,3.38
2023-10-06T11:42:24.848Z,8.30
2023-10-06T11:44:57.882Z,4.32
2023-10-06T11:47:28.246Z,2.88
2023-10-06T11:49:56.759Z,9.13
2023-10-06T11:52:24.894Z,8.02
2023-10-06T11:54:52.990Z,6.25
2023-10-06T11:57:21.272Z,6.38
2023-10-06T11:59:52.489Z,3.67
2023-10-06T12:02:22.596Z,3.38
2023-10-06T12:04:49.998Z,4.63
2023-10-06T12:07:23.255Z,10.00
2023-10-06T12:09:50.524Z,8.88
2023-10-06T12:12:20.655Z,7.82
2023-10-06T12:14:48.958Z,4.93
2023-10-06T12:17:17.028Z,5.85
2023-10-06T12:19:44.597Z,3.78
2023-10-06T12:22:14.744Z,4.10
2023-10-06T12:24:45.063Z,6.78
2023-10-06T12:27:12.913Z,10.93
2023-10-06T12:29:40.553Z,3.33
2023-10-06T12:32:07.781Z,3.03
2023-10-06T12:34:35.091Z,5.07
2023-10-06T12:37:05.141Z,4.28
2023-10-06T12:39:35.852Z,8.13
2023-10-06T12:42:05.401Z,12.73
2023-10-06T12:44:32.782Z,8.82
2023-10-06T12:47:04.956Z,5.40
2023-10-06T12:49:32.555Z,5.72
2023-10-06T12:52:00.681Z,2.40
2023-10-06T12:54:28.694Z,6.55
2023-10-06T12:56:56.308Z,9.35
2023-10-06T12:59:23.788Z,4.35
2023-10-06T13:01:51.874Z,4.82
2023-10-06T13:04:19.415Z,6.13
2023-10-06T13:06:48.886Z,5.63
2023-10-06T13:09:22.964Z,8.77
2023-10-06T13:11:50.331Z,16.03
2023-10-06T13:14:19.772Z,14.05
2023-10-06T13:16:47.765Z,11.02
2023-10-06T13:19:15.356Z,9.68
2023-10-06T13:21:44.400Z,5.97
2023-10-06T13:24:14.032Z,7.50
2023-10-06T13:26:45.082Z,7.85
2023-10-06T13:29:12.862Z,9.27
2023-10-06T13:31:40.663Z,11.43
2023-10-06T13:34:09.281Z,11.23
2023-10-06T13:36:37.072Z,13.55
2023-10-06T13:39:10.322Z,14.30
2023-10-06T13:41:42.970Z,10.50
2023-10-06T13:44:11.075Z,7.82
2023-10-06T13:46:38.641Z,8.73
2023-10-06T13:49:06.810Z,7.40
2023-10-06T13:51:34.978Z,9.55
2023-10-06T13:54:04.686Z,10.90
2023-10-06T13:56:33.151Z,19.08
2023-10-06T13:59:01.181Z,18.13
2023-10-06T14:01:29.019Z,16.55
2023-10-06T14:03:57.684Z,13.07
2023-10-06T14:06:25.084Z,12.95
2023-10-06T14:08:54.319Z,12.98
2023-10-06T14:11:21.808Z,12.60
2023-10-06T14:13:51.238Z,8.43
2023-10-06T14:16:24.605Z,15.30
2023-10-06T14:18:54.534Z,12.25
2023-10-06T14:21:21.717Z,11.90
2023-10-06T14:23:50.788Z,11.25
2023-10-06T14:26:20.246Z,13.90
2023-10-06T14:28:48.681Z,7.28
2023-10-06T14:31:36.073Z,12.85
2023-10-06T14:34:21.782Z,8.68
2023-10-06T14:36:58.518Z,15.65
2023-10-06T14:39:44.871Z,20.30
2023-10-06T14:42:30.507Z,21.80
2023-10-06T14:45:16.332Z,15.40
2023-10-06T14:47:43.709Z,13.80
2023-10-06T14:50:14.691Z,9.98
2023-10-06T14:52:42.406Z,15.93
2023-10-06T14:55:10.682Z,17.02
2023-10-06T14:57:41.002Z,13.23
2023-10-06T15:00:09.807Z,16.15
2023-10-06T15:02:37.126Z,15.15
2023-10-06T15:05:05.546Z,12.48
2023-10-06T15:07:32.771Z,9.60
2023-10-06T15:10:00.053Z,15.10
2023-10-06T15:12:27.432Z,13.77
2023-10-06T15:14:55.272Z,11.95
2023-10-06T15:17:23.934Z,14.00
2023-10-06T15:19:51.703Z,15.48
2023-10-06T15:22:21.559Z,12.52
2023-10-06T15:24:48.887Z,10.93
2023-10-06T15:27:17.575Z,17.10
2023-10-06T15:29:45.095Z,19.80
2023-10-06T15:32:13.316Z,18.63
2023-10-06T15:34:40.856Z,17.70
2023-10-06T15:37:08.588Z,23.88
2023-10-06T15:39:42.311Z,22.05
2023-10-06T15:42:11.148Z,21.92
2023-10-06T15:44:38.895Z,26.02
2023-10-06T15:47:08.984Z,20.42
2023-10-06T15:49:38.566Z,26.60
2023-10-06T15:52:05.799Z,24.35
2023-10-06T15:54:33.815Z,25.63
2023-10-06T15:57:01.429Z,25.85
2023-10-06T15:59:31.227Z,30.73
2023-10-06T16:02:01.454Z,30.25
2023-10-06T16:04:28.749Z,23.15
2023-10-06T16:06:59.853Z,24.80
2023-10-06T16:09:27.808Z,22.75
2023-10-06T16:11:55.060Z,23.85
2023-10-06T16:14:22.619Z,15.98
2023-10-06T16:16:49.930Z,14.00
2023-10-06T16:19:18.696Z,9.30
2023-10-06T16:21:46.094Z,11.90
2023-10-06T16:24:15.492Z,5.25
2023-10-06T16:26:44.590Z,7.70
2023-10-06T16:29:13.735Z,6.25
2023-10-06T16:31:41.990Z,5.00
2023-10-06T16:34:10.054Z,6.78
2023-10-06T16:36:38.687Z,7.88
2023-10-06T16:39:17.836Z,2.05
2023-10-06T16:41:46.269Z,10.20
2023-10-06T16:44:14.545Z,7.60
2023-10-06T16:46:42.554Z,3.55
2023-10-06T16:49:10.567Z,7.93
2023-10-06T16:51:40.711Z,3.50
2023-10-06T16:54:10.836Z,5.10
2023-10-06T16:56:39.232Z,2.55
2023-10-06T16:59:07.502Z,5.47
2023-10-06T17:01:36.351Z,8.38
2023-10-06T17:04:07.576Z,3.45
2023-10-06T17:06:36.648Z,3.53
2023-10-06T17:09:15.076Z,4.20
2023-10-06T17:11:43.948Z,2.30
2023-10-06T17:14:14.071Z,3.45
2023-10-06T17:16:42.963Z,4.97
2023-10-06T17:19:13.302Z,10.70
2023-10-06T17:21:42.320Z,2.45
2023-10-06T17:24:12.103Z,4.00
2023-10-06T17:26:39.898Z,4.63
2023-10-06T17:29:59.179Z,5.85
2023-10-06T17:32:28.021Z,7.00
2023-10-06T17:34:55.628Z,7.97
2023-10-06T17:37:30.888Z,4.82
2023-10-06T17:39:58.879Z,7.72
2023-10-06T17:42:27.515Z,3.38
2023-10-06T17:44:55.105Z,4.05
2023-10-06T17:49:53.576Z,6.00
2023-10-06T17:52:22.329Z,10.25
2023-10-06T17:54:49.887Z,7.78
2023-10-06T17:57:17.635Z,5.72
2023-10-06T17:59:46.568Z,3.55
2023-10-06T18:02:37.205Z,4.57
2023-10-06T18:05:06.080Z,11.38
2023-10-06T18:07:33.541Z,3.38
2023-10-06T18:10:01.047Z,4.05
2023-10-06T18:13:19.367Z,4.25
2023-10-06T18:15:46.948Z,3.92
2023-10-06T18:18:14.211Z,3.88
2023-10-06T18:20:43.897Z,2.83
2023-10-06T18:23:14.498Z,4.25
2023-10-06T18:25:41.825Z,6.10
2023-10-06T18:28:09.517Z,2.25
2023-10-06T18:30:37.121Z,4.47
2023-10-06T18:33:05.535Z,6.57
2023-10-06T18:36:22.916Z,4.63
2023-10-06T18:41:50.487Z,6.93
2023-10-06T18:44:18.345Z,2.85
2023-10-06T18:46:46.631Z,3.38
2023-10-06T18:49:16.096Z,2.53
2023-10-06T18:51:45.058Z,5.50
2023-10-06T18:54:12.516Z,6.90
2023-10-06T18:56:39.894Z,3.65
2023-10-06T18:59:07.609Z,8.02
2023-10-06T19:01:36.606Z,4.70
2023-10-06T19:23:25.830Z,3.08
2023-10-06T19:25:55.552Z,2.45
2023-10-06T19:28:24.194Z,6.50
2023-10-06T19:30:57.048Z,5.47
2023-10-06T19:33:24.307Z,2.05
2023-10-06T19:35:56.292Z,4.10
2023-10-06T19:38:23.443Z,6.68
2023-10-06T19:40:50.718Z,2.75
2023-10-06T19:43:19.917Z,4.35
2023-10-06T19:45:52.726Z,4.32
2023-10-06T19:48:20.331Z,1.77
2023-10-06T19:50:47.556Z,10.23
2023-10-06T19:53:14.997Z,3.50
2023-10-06T19:55:42.700Z,4.90
2023-10-06T19:58:10.361Z,2.40
2023-10-06T20:00:41.287Z,6.50
2023-10-06T20:03:09.080Z,4.68
2023-10-06T20:05:41.096Z,4.78
2023-10-06T20:08:08.697Z,3.28
2023-10-06T20:10:37.199Z,3.88
2023-10-06T20:13:05.603Z,5.75
2023-10-06T20:15:33.494Z,6.78
2023-10-06T20:18:02.096Z,3.80
2023-10-06T20:20:31.280Z,6.18
2023-10-06T20:22:58.688Z,6.75
2023-10-06T20:25:26.233Z,5.20
2023-10-06T20:27:53.892Z,5.93
2023-10-06T20:30:22.181Z,5.38
2023-10-06T20:32:50.520Z,8.63
2023-10-06T20:35:17.925Z,8.50
2023-10-06T20:37:45.636Z,7.40
2023-10-06T20:40:25.715Z,4.30
2023-10-06T20:42:56.697Z,5.93
2023-10-06T20:45:28.450Z,4.82
2023-10-06T20:47:56.681Z,4.82
2023-10-06T20:50:24.636Z,4.75
2023-10-06T20:52:53.041Z,7.28
2023-10-06T20:55:20.996Z,4.15
2023-10-06T20:57:49.666Z,4.07
2023-10-06T21:00:22.714Z,5.93
2023-10-06T21:02:50.762Z,2.92
2023-10-06T21:05:18.518Z,2.65
2023-10-06T21:07:45.978Z,2.45
2023-10-06T21:10:14.220Z,3.35
2023-10-06T21:12:45.641Z,1.83
2023-10-06T21:15:15.259Z,5.55
2023-10-06T21:17:43.806Z,8.05
2023-10-06T21:20:13.580Z,12.57
2023-10-06T21:22:41.311Z,11.73
2023-10-06T21:25:10.361Z,12.57
2023-10-06T21:27:37.709Z,5.95
2023-10-06T21:30:06.225Z,7.53
2023-10-06T21:32:36.440Z,3.78
2023-10-06T21:35:07.029Z,5.85
2023-10-06T21:37:35.250Z,3.13
2023-10-06T21:40:02.840Z,5.22
2023-10-06T21:42:30.441Z,3.80
2023-10-06T21:44:57.804Z,2.35
2023-10-06T21:47:24.936Z,4.13
2023-10-06T21:49:52.376Z,1.90
2023-10-06T21:52:19.774Z,4.70
2023-10-06T21:54:48.969Z,3.05
2023-10-06T21:57:16.233Z,6.00
2023-10-06T21:59:43.527Z,3.88
2023-10-06T22:02:11.759Z,7.75
2023-10-06T22:04:39.320Z,4.80
2023-10-06T22:07:06.738Z,3.15
2023-10-06T22:09:34.986Z,2.92
2023-10-06T22:12:02.376Z,4.97
2023-10-06T22:14:36.314Z,4.38
2023-10-06T22:17:05.653Z,7.05
2023-10-06T22:19:34.555Z,4.68
2023-10-06T22:22:02.920Z,5.38
2023-10-06T22:24:30.275Z,6.68
2023-10-06T22:26:58.789Z,6.80
2023-10-06T22:29:26.516Z,5.38
2023-10-06T22:31:55.171Z,6.07
2023-10-06T22:34:23.753Z,5.28
2023-10-06T22:36:54.478Z,4.90
2023-10-06T22:39:23.944Z,4.65
2023-10-06T22:41:51.136Z,4.63
2023-10-06T22:44:18.487Z,7.22
2023-10-06T22:46:45.820Z,3.25
2023-10-06T22:49:13.809Z,5.30
2023-10-06T22:51:41.265Z,5.15
2023-10-06T22:54:08.872Z,7.40
2023-10-06T22:56:36.198Z,6.50
2023-10-06T22:59:04.969Z,5.88
2023-10-06T23:01:32.421Z,5.07
2023-10-06T23:03:59.806Z,8.45
2023-10-06T23:06:29.017Z,5.50
2023-10-06T23:08:56.346Z,4.50
2023-10-06T23:11:23.696Z,4.72
2023-10-06T23:13:53.100Z,7.82
2023-10-06T23:16:20.454Z,7.28
2023-10-06T23:18:47.592Z,6.43
2023-10-06T23:21:15.111Z,4.47
2023-10-06T23:23:43.120Z,3.63
2023-10-06T23:26:10.576Z,4.60
2023-10-06T23:28:40.359Z,4.82
2023-10-06T23:31:10.660Z,7.03
2023-10-06T23:33:38.281Z,8.93
2023-10-06T23:36:06.127Z,3.40
2023-10-06T23:38:33.414Z,5.78
2023-10-06T23:41:02.500Z,3.30
2023-10-06T23:43:31.439Z,6.00
2023-10-06T23:45:59.003Z,8.50
2023-10-06T23:48:29.804Z,4.90
2023-10-06T23:51:10.283Z,3.85
2023-10-06T23:53:38.134Z,4.18
2023-10-06T23:56:20.476Z,10.45
2023-10-06T23:58:47.998Z,7.80
